sensor_id;sensor_type;location;lat;lon;timestamp;temperature;humidity
52189;DHT22;38162;45.926;13.608;2023-05-07T00:01:14;19.10;87.60
52189;DHT22;38162;45.926;13.608;2023-05-07T00:03:39;19.00;87.30
52189;DHT22;38162;45.926;13.608;2023-05-07T00:06:05;19.00;87.10
52189;DHT22;38162;45.926;13.608;2023-05-07T00:08:31;19.00;87.50
52189;DHT22;38162;45.926;13.608;2023-05-07T00:10:57;18.90;87.20
52189;DHT22;38162;45.926;13.608;2023-05-07T00:13:22;18.90;87.00
52189;DHT22;38162;45.926;13.608;2023-05-07T00:15:48;18.90;86.80
52189;DHT22;38162;45.926;13.608;2023-05-07T00:18:14;18.90;86.80
52189;DHT22;38162;45.926;13.608;2023-05-07T00:20:40;18.80;86.70
52189;DHT22;38162;45.926;13.608;2023-05-07T00:23:05;18.80;86.80
52189;DHT22;38162;45.926;13.608;2023-05-07T00:25:31;18.80;86.80
52189;DHT22;38162;45.926;13.608;2023-05-07T00:27:57;18.80;87.00
52189;DHT22;38162;45.926;13.608;2023-05-07T00:30:28;18.70;86.90
52189;DHT22;38162;45.926;13.608;2023-05-07T00:32:54;18.70;87.30
52189;DHT22;38162;45.926;13.608;2023-05-07T00:35:19;18.70;87.10
52189;DHT22;38162;45.926;13.608;2023-05-07T00:37:45;18.70;86.90
52189;DHT22;38162;45.926;13.608;2023-05-07T00:40:11;18.70;87.40
52189;DHT22;38162;45.926;13.608;2023-05-07T00:42:37;18.60;87.60
52189;DHT22;38162;45.926;13.608;2023-05-07T00:45:03;18.60;87.50
52189;DHT22;38162;45.926;13.608;2023-05-07T00:47:30;18.50;87.90
52189;DHT22;38162;45.926;13.608;2023-05-07T00:53:37;18.40;89.00
52189;DHT22;38162;45.926;13.608;2023-05-07T01:00:49;18.30;89.10
52189;DHT22;38162;45.926;13.608;2023-05-07T01:03:06;18.30;88.90
52189;DHT22;38162;45.926;13.608;2023-05-07T01:06:12;18.40;88.90
52189;DHT22;38162;45.926;13.608;2023-05-07T01:12:23;18.30;89.50
52189;DHT22;38162;45.926;13.608;2023-05-07T01:15:11;18.30;89.80
52189;DHT22;38162;45.926;13.608;2023-05-07T01:17:41;18.30;90.10
52189;DHT22;38162;45.926;13.608;2023-05-07T01:20:08;18.30;89.60
52189;DHT22;38162;45.926;13.608;2023-05-07T01:22:37;18.30;89.00
52189;DHT22;38162;45.926;13.608;2023-05-07T01:25:04;18.20;88.70
52189;DHT22;38162;45.926;13.608;2023-05-07T01:27:30;18.20;88.60
52189;DHT22;38162;45.926;13.608;2023-05-07T01:29:56;18.20;88.90
52189;DHT22;38162;45.926;13.608;2023-05-07T01:33:15;18.20;89.30
52189;DHT22;38162;45.926;13.608;2023-05-07T01:35:42;18.20;89.00
52189;DHT22;38162;45.926;13.608;2023-05-07T01:38:09;18.20;88.90
52189;DHT22;38162;45.926;13.608;2023-05-07T01:40:35;18.20;88.70
52189;DHT22;38162;45.926;13.608;2023-05-07T01:43:02;18.10;88.20
52189;DHT22;38162;45.926;13.608;2023-05-07T01:45:28;18.10;88.00
52189;DHT22;38162;45.926;13.608;2023-05-07T01:47:58;18.10;88.00
52189;DHT22;38162;45.926;13.608;2023-05-07T01:50:25;18.10;88.00
52189;DHT22;38162;45.926;13.608;2023-05-07T01:52:51;18.00;87.80
52189;DHT22;38162;45.926;13.608;2023-05-07T01:55:17;18.00;87.70
52189;DHT22;38162;45.926;13.608;2023-05-07T01:57:43;18.00;87.70
52189;DHT22;38162;45.926;13.608;2023-05-07T02:00:09;18.00;87.60
52189;DHT22;38162;45.926;13.608;2023-05-07T02:02:35;17.90;88.30
52189;DHT22;38162;45.926;13.608;2023-05-07T02:05:01;17.90;88.70
52189;DHT22;38162;45.926;13.608;2023-05-07T02:07:27;17.80;89.00
52189;DHT22;38162;45.926;13.608;2023-05-07T02:09:53;17.80;88.60
52189;DHT22;38162;45.926;13.608;2023-05-07T02:12:21;17.80;88.90
52189;DHT22;38162;45.926;13.608;2023-05-07T02:14:47;17.80;88.80
52189;DHT22;38162;45.926;13.608;2023-05-07T02:17:13;17.80;88.70
52189;DHT22;38162;45.926;13.608;2023-05-07T02:19:38;17.70;88.70
52189;DHT22;38162;45.926;13.608;2023-05-07T02:22:04;17.70;89.40
52189;DHT22;38162;45.926;13.608;2023-05-07T02:24:30;17.70;89.20
52189;DHT22;38162;45.926;13.608;2023-05-07T02:26:56;17.60;89.00
52189;DHT22;38162;45.926;13.608;2023-05-07T02:42:50;17.60;88.00
52189;DHT22;38162;45.926;13.608;2023-05-07T02:45:16;17.70;87.60
52189;DHT22;38162;45.926;13.608;2023-05-07T02:47:42;17.80;87.40
52189;DHT22;38162;45.926;13.608;2023-05-07T02:50:08;17.70;87.20
52189;DHT22;38162;45.926;13.608;2023-05-07T02:52:33;17.70;87.20
52189;DHT22;38162;45.926;13.608;2023-05-07T02:54:59;17.60;87.90
52189;DHT22;38162;45.926;13.608;2023-05-07T02:57:25;17.50;88.00
52189;DHT22;38162;45.926;13.608;2023-05-07T02:59:51;17.50;88.20
52189;DHT22;38162;45.926;13.608;2023-05-07T03:02:17;17.50;88.30
52189;DHT22;38162;45.926;13.608;2023-05-07T03:04:42;17.50;88.40
52189;DHT22;38162;45.926;13.608;2023-05-07T03:07:08;17.40;88.40
52189;DHT22;38162;45.926;13.608;2023-05-07T03:09:34;17.40;88.50
52189;DHT22;38162;45.926;13.608;2023-05-07T03:12:00;17.40;88.50
52189;DHT22;38162;45.926;13.608;2023-05-07T03:14:27;17.40;88.60
52189;DHT22;38162;45.926;13.608;2023-05-07T03:16:53;17.30;88.60
52189;DHT22;38162;45.926;13.608;2023-05-07T03:19:19;17.40;88.60
52189;DHT22;38162;45.926;13.608;2023-05-07T03:21:48;17.30;88.50
52189;DHT22;38162;45.926;13.608;2023-05-07T03:24:20;17.30;88.50
52189;DHT22;38162;45.926;13.608;2023-05-07T03:27:28;17.30;88.70
52189;DHT22;38162;45.926;13.608;2023-05-07T03:30:31;17.20;88.50
52189;DHT22;38162;45.926;13.608;2023-05-07T03:36:53;17.10;88.60
52189;DHT22;38162;45.926;13.608;2023-05-07T03:39:22;17.00;88.90
52189;DHT22;38162;45.926;13.608;2023-05-07T03:45:29;17.00;89.20
52189;DHT22;38162;45.926;13.608;2023-05-07T03:48:01;16.90;89.10
52189;DHT22;38162;45.926;13.608;2023-05-07T03:50:27;16.90;89.30
52189;DHT22;38162;45.926;13.608;2023-05-07T03:52:53;16.90;89.50
52189;DHT22;38162;45.926;13.608;2023-05-07T03:55:18;16.80;89.60
52189;DHT22;38162;45.926;13.608;2023-05-07T03:57:44;16.80;89.80
52189;DHT22;38162;45.926;13.608;2023-05-07T04:00:11;16.80;90.00
52189;DHT22;38162;45.926;13.608;2023-05-07T04:02:37;16.70;89.90
52189;DHT22;38162;45.926;13.608;2023-05-07T04:05:03;16.70;90.10
52189;DHT22;38162;45.926;13.608;2023-05-07T04:07:29;16.70;90.10
52189;DHT22;38162;45.926;13.608;2023-05-07T04:09:54;16.70;90.10
52189;DHT22;38162;45.926;13.608;2023-05-07T04:12:20;16.70;90.20
52189;DHT22;38162;45.926;13.608;2023-05-07T04:14:46;16.70;90.20
52189;DHT22;38162;45.926;13.608;2023-05-07T04:17:12;16.70;90.30
52189;DHT22;38162;45.926;13.608;2023-05-07T04:19:37;16.70;90.40
52189;DHT22;38162;45.926;13.608;2023-05-07T04:22:03;16.70;90.70
52189;DHT22;38162;45.926;13.608;2023-05-07T04:24:31;16.70;90.40
52189;DHT22;38162;45.926;13.608;2023-05-07T04:26:58;16.70;90.70
52189;DHT22;38162;45.926;13.608;2023-05-07T04:29:24;16.70;90.60
52189;DHT22;38162;45.926;13.608;2023-05-07T04:31:50;16.80;90.80
52189;DHT22;38162;45.926;13.608;2023-05-07T04:34:15;16.80;90.70
52189;DHT22;38162;45.926;13.608;2023-05-07T04:36:42;16.80;90.60
52189;DHT22;38162;45.926;13.608;2023-05-07T04:39:08;16.90;90.70
52189;DHT22;38162;45.926;13.608;2023-05-07T04:41:36;16.90;90.70
52189;DHT22;38162;45.926;13.608;2023-05-07T04:44:02;16.90;90.80
52189;DHT22;38162;45.926;13.608;2023-05-07T04:46:30;16.90;90.70
52189;DHT22;38162;45.926;13.608;2023-05-07T04:48:56;17.00;90.70
52189;DHT22;38162;45.926;13.608;2023-05-07T04:51:21;17.00;90.60
52189;DHT22;38162;45.926;13.608;2023-05-07T04:53:48;17.00;90.50
52189;DHT22;38162;45.926;13.608;2023-05-07T04:56:14;17.10;90.50
52189;DHT22;38162;45.926;13.608;2023-05-07T04:58:40;17.10;90.50
52189;DHT22;38162;45.926;13.608;2023-05-07T05:01:06;17.10;90.40
52189;DHT22;38162;45.926;13.608;2023-05-07T05:10:25;17.20;90.40
52189;DHT22;38162;45.926;13.608;2023-05-07T05:13:00;17.20;90.40
52189;DHT22;38162;45.926;13.608;2023-05-07T05:15:50;17.10;90.50
52189;DHT22;38162;45.926;13.608;2023-05-07T05:18:54;17.20;90.70
52189;DHT22;38162;45.926;13.608;2023-05-07T05:24:37;17.20;90.80
52189;DHT22;38162;45.926;13.608;2023-05-07T05:27:21;17.20;90.80
52189;DHT22;38162;45.926;13.608;2023-05-07T05:29:47;17.20;90.80
52189;DHT22;38162;45.926;13.608;2023-05-07T05:32:13;17.30;90.90
52189;DHT22;38162;45.926;13.608;2023-05-07T05:34:39;17.30;90.80
52189;DHT22;38162;45.926;13.608;2023-05-07T05:37:05;17.40;90.70
52189;DHT22;38162;45.926;13.608;2023-05-07T05:39:30;17.50;90.60
52189;DHT22;38162;45.926;13.608;2023-05-07T05:41:56;17.50;90.50
52189;DHT22;38162;45.926;13.608;2023-05-07T05:44:22;17.60;90.30
52189;DHT22;38162;45.926;13.608;2023-05-07T05:46:48;17.70;90.40
52189;DHT22;38162;45.926;13.608;2023-05-07T05:49:15;17.70;90.00
52189;DHT22;38162;45.926;13.608;2023-05-07T05:51:41;17.90;90.00
52189;DHT22;38162;45.926;13.608;2023-05-07T05:54:06;18.00;89.90
52189;DHT22;38162;45.926;13.608;2023-05-07T05:56:32;18.00;90.70
52189;DHT22;38162;45.926;13.608;2023-05-07T05:58:58;18.00;90.70
52189;DHT22;38162;45.926;13.608;2023-05-07T06:01:24;18.10;90.90
52189;DHT22;38162;45.926;13.608;2023-05-07T06:03:50;18.10;90.80
52189;DHT22;38162;45.926;13.608;2023-05-07T06:06:16;18.20;90.90
52189;DHT22;38162;45.926;13.608;2023-05-07T06:08:42;18.20;90.90
52189;DHT22;38162;45.926;13.608;2023-05-07T06:11:08;18.30;91.00
52189;DHT22;38162;45.926;13.608;2023-05-07T06:13:33;18.30;90.90
52189;DHT22;38162;45.926;13.608;2023-05-07T06:15:59;18.30;90.80
52189;DHT22;38162;45.926;13.608;2023-05-07T06:18:25;18.30;90.90
52189;DHT22;38162;45.926;13.608;2023-05-07T06:20:52;18.30;91.00
52189;DHT22;38162;45.926;13.608;2023-05-07T06:23:18;18.30;90.90
52189;DHT22;38162;45.926;13.608;2023-05-07T06:25:50;18.30;90.80
52189;DHT22;38162;45.926;13.608;2023-05-07T06:28:16;18.30;90.60
52189;DHT22;38162;45.926;13.608;2023-05-07T06:30:42;18.30;90.90
52189;DHT22;38162;45.926;13.608;2023-05-07T06:33:08;18.30;90.60
52189;DHT22;38162;45.926;13.608;2023-05-07T06:35:34;18.30;90.40
52189;DHT22;38162;45.926;13.608;2023-05-07T06:38:00;18.40;89.90
52189;DHT22;38162;45.926;13.608;2023-05-07T06:40:26;18.40;89.70
52189;DHT22;38162;45.926;13.608;2023-05-07T06:42:53;18.50;89.90
52189;DHT22;38162;45.926;13.608;2023-05-07T06:45:53;18.50;90.20
52189;DHT22;38162;45.926;13.608;2023-05-07T06:51:59;18.70;88.70
52189;DHT22;38162;45.926;13.608;2023-05-07T06:54:38;18.80;88.80
52189;DHT22;38162;45.926;13.608;2023-05-07T06:57:31;18.90;88.80
52189;DHT22;38162;45.926;13.608;2023-05-07T07:03:11;19.00;88.60
52189;DHT22;38162;45.926;13.608;2023-05-07T07:05:37;19.10;88.60
52189;DHT22;38162;45.926;13.608;2023-05-07T07:08:03;19.20;88.60
52189;DHT22;38162;45.926;13.608;2023-05-07T07:10:30;19.20;88.50
52189;DHT22;38162;45.926;13.608;2023-05-07T07:12:55;19.30;88.50
52189;DHT22;38162;45.926;13.608;2023-05-07T07:15:21;19.30;88.40
52189;DHT22;38162;45.926;13.608;2023-05-07T07:17:48;19.40;88.60
52189;DHT22;38162;45.926;13.608;2023-05-07T07:20:14;19.50;88.20
52189;DHT22;38162;45.926;13.608;2023-05-07T07:22:40;19.60;88.10
52189;DHT22;38162;45.926;13.608;2023-05-07T07:25:06;19.70;87.30
52189;DHT22;38162;45.926;13.608;2023-05-07T07:27:32;19.70;86.40
52189;DHT22;38162;45.926;13.608;2023-05-07T07:29:57;19.80;85.40
52189;DHT22;38162;45.926;13.608;2023-05-07T07:32:23;19.90;85.20
52189;DHT22;38162;45.926;13.608;2023-05-07T07:34:49;20.00;84.20
52189;DHT22;38162;45.926;13.608;2023-05-07T07:37:15;20.00;83.30
52189;DHT22;38162;45.926;13.608;2023-05-07T07:39:40;20.10;83.30
52189;DHT22;38162;45.926;13.608;2023-05-07T07:42:06;20.20;85.60
52189;DHT22;38162;45.926;13.608;2023-05-07T07:44:32;20.20;85.80
52189;DHT22;38162;45.926;13.608;2023-05-07T07:46:58;20.30;85.80
52189;DHT22;38162;45.926;13.608;2023-05-07T07:49:24;20.30;85.40
52189;DHT22;38162;45.926;13.608;2023-05-07T07:51:49;20.40;85.40
52189;DHT22;38162;45.926;13.608;2023-05-07T07:54:16;20.40;85.40
52189;DHT22;38162;45.926;13.608;2023-05-07T07:56:42;20.50;85.40
52189;DHT22;38162;45.926;13.608;2023-05-07T07:59:08;20.60;85.40
52189;DHT22;38162;45.926;13.608;2023-05-07T08:01:33;20.70;85.10
52189;DHT22;38162;45.926;13.608;2023-05-07T08:03:59;20.70;85.60
52189;DHT22;38162;45.926;13.608;2023-05-07T08:06:25;20.80;85.20
52189;DHT22;38162;45.926;13.608;2023-05-07T08:08:52;20.90;85.30
52189;DHT22;38162;45.926;13.608;2023-05-07T08:11:18;20.90;84.20
52189;DHT22;38162;45.926;13.608;2023-05-07T08:13:44;21.00;83.60
52189;DHT22;38162;45.926;13.608;2023-05-07T08:16:10;21.10;83.10
52189;DHT22;38162;45.926;13.608;2023-05-07T08:18:36;21.20;82.90
52189;DHT22;38162;45.926;13.608;2023-05-07T08:21:02;21.30;82.90
52189;DHT22;38162;45.926;13.608;2023-05-07T08:23:28;21.30;82.40
52189;DHT22;38162;45.926;13.608;2023-05-07T08:25:54;21.40;81.80
52189;DHT22;38162;45.926;13.608;2023-05-07T08:28:20;21.40;81.40
52189;DHT22;38162;45.926;13.608;2023-05-07T08:31:10;21.60;80.60
52189;DHT22;38162;45.926;13.608;2023-05-07T08:33:36;21.60;80.40
52189;DHT22;38162;45.926;13.608;2023-05-07T08:36:34;21.70;79.90
52189;DHT22;38162;45.926;13.608;2023-05-07T08:39:03;21.80;78.50
52189;DHT22;38162;45.926;13.608;2023-05-07T08:41:35;21.90;78.20
52189;DHT22;38162;45.926;13.608;2023-05-07T08:44:07;21.90;77.90
52189;DHT22;38162;45.926;13.608;2023-05-07T08:46:52;22.00;76.40
52189;DHT22;38162;45.926;13.608;2023-05-07T08:49:37;22.10;76.80
52189;DHT22;38162;45.926;13.608;2023-05-07T08:52:12;22.10;74.90
52189;DHT22;38162;45.926;13.608;2023-05-07T08:54:44;22.20;68.90
52189;DHT22;38162;45.926;13.608;2023-05-07T08:57:13;22.30;69.20
52189;DHT22;38162;45.926;13.608;2023-05-07T08:59:39;22.40;68.30
52189;DHT22;38162;45.926;13.608;2023-05-07T09:02:07;22.40;69.80
52189;DHT22;38162;45.926;13.608;2023-05-07T09:04:36;22.50;69.30
52189;DHT22;38162;45.926;13.608;2023-05-07T09:07:01;22.60;70.80
52189;DHT22;38162;45.926;13.608;2023-05-07T09:09:32;22.60;69.80
52189;DHT22;38162;45.926;13.608;2023-05-07T09:11:58;22.70;69.30
52189;DHT22;38162;45.926;13.608;2023-05-07T09:14:27;22.70;68.60
52189;DHT22;38162;45.926;13.608;2023-05-07T09:16:53;22.80;66.40
52189;DHT22;38162;45.926;13.608;2023-05-07T09:19:26;22.80;67.40
52189;DHT22;38162;45.926;13.608;2023-05-07T09:22:00;22.90;65.70
52189;DHT22;38162;45.926;13.608;2023-05-07T09:24:26;23.00;67.80
52189;DHT22;38162;45.926;13.608;2023-05-07T09:26:54;23.00;67.10
52189;DHT22;38162;45.926;13.608;2023-05-07T09:29:20;23.20;68.00
52189;DHT22;38162;45.926;13.608;2023-05-07T09:31:46;23.30;68.40
52189;DHT22;38162;45.926;13.608;2023-05-07T09:34:12;23.40;67.60
52189;DHT22;38162;45.926;13.608;2023-05-07T09:36:38;23.40;65.50
52189;DHT22;38162;45.926;13.608;2023-05-07T09:39:03;23.50;64.10
52189;DHT22;38162;45.926;13.608;2023-05-07T09:41:30;23.50;64.20
52189;DHT22;38162;45.926;13.608;2023-05-07T09:43:58;23.60;66.30
52189;DHT22;38162;45.926;13.608;2023-05-07T09:46:28;23.70;62.40
52189;DHT22;38162;45.926;13.608;2023-05-07T09:48:57;23.80;61.40
52189;DHT22;38162;45.926;13.608;2023-05-07T09:51:47;23.80;62.20
52189;DHT22;38162;45.926;13.608;2023-05-07T09:54:14;23.90;63.60
52189;DHT22;38162;45.926;13.608;2023-05-07T09:56:40;24.00;62.70
52189;DHT22;38162;45.926;13.608;2023-05-07T09:59:12;24.10;63.60
52189;DHT22;38162;45.926;13.608;2023-05-07T10:01:38;24.10;64.80
52189;DHT22;38162;45.926;13.608;2023-05-07T10:04:06;24.20;63.50
52189;DHT22;38162;45.926;13.608;2023-05-07T10:06:35;24.30;56.40
52189;DHT22;38162;45.926;13.608;2023-05-07T10:09:02;24.30;53.10
52189;DHT22;38162;45.926;13.608;2023-05-07T10:11:28;24.40;56.10
52189;DHT22;38162;45.926;13.608;2023-05-07T10:14:18;24.40;52.90
52189;DHT22;38162;45.926;13.608;2023-05-07T10:17:16;24.40;52.40
52189;DHT22;38162;45.926;13.608;2023-05-07T10:20:14;24.40;50.60
52189;DHT22;38162;45.926;13.608;2023-05-07T10:23:27;24.50;50.40
52189;DHT22;38162;45.926;13.608;2023-05-07T10:25:57;24.40;50.70
52189;DHT22;38162;45.926;13.608;2023-05-07T10:35:14;24.60;49.70
52189;DHT22;38162;45.926;13.608;2023-05-07T10:37:57;24.60;50.80
52189;DHT22;38162;45.926;13.608;2023-05-07T10:40:23;24.70;49.40
52189;DHT22;38162;45.926;13.608;2023-05-07T10:42:59;24.70;50.40
52189;DHT22;38162;45.926;13.608;2023-05-07T10:45:26;24.70;50.80
52189;DHT22;38162;45.926;13.608;2023-05-07T10:48:14;24.80;50.10
52189;DHT22;38162;45.926;13.608;2023-05-07T10:50:43;24.80;50.80
52189;DHT22;38162;45.926;13.608;2023-05-07T10:55:48;24.90;48.20
52189;DHT22;38162;45.926;13.608;2023-05-07T10:58:27;24.90;48.80
52189;DHT22;38162;45.926;13.608;2023-05-07T11:00:58;24.90;50.30
52189;DHT22;38162;45.926;13.608;2023-05-07T11:03:25;25.00;49.40
52189;DHT22;38162;45.926;13.608;2023-05-07T11:06:10;25.00;48.20
52189;DHT22;38162;45.926;13.608;2023-05-07T11:08:58;25.10;47.00
52189;DHT22;38162;45.926;13.608;2023-05-07T11:11:46;25.00;47.00
52189;DHT22;38162;45.926;13.608;2023-05-07T11:14:14;24.90;46.00
52189;DHT22;38162;45.926;13.608;2023-05-07T11:16:41;24.90;47.30
52189;DHT22;38162;45.926;13.608;2023-05-07T11:19:08;24.90;46.30
52189;DHT22;38162;45.926;13.608;2023-05-07T11:21:41;24.90;47.40
52189;DHT22;38162;45.926;13.608;2023-05-07T11:24:10;24.90;49.30
52189;DHT22;38162;45.926;13.608;2023-05-07T11:26:47;25.00;49.80
52189;DHT22;38162;45.926;13.608;2023-05-07T11:29:18;25.10;46.70
52189;DHT22;38162;45.926;13.608;2023-05-07T11:31:49;25.00;46.50
52189;DHT22;38162;45.926;13.608;2023-05-07T11:34:19;25.00;47.00
52189;DHT22;38162;45.926;13.608;2023-05-07T11:36:47;25.00;46.90
52189;DHT22;38162;45.926;13.608;2023-05-07T11:39:31;25.00;46.40
52189;DHT22;38162;45.926;13.608;2023-05-07T11:42:00;25.00;47.90
52189;DHT22;38162;45.926;13.608;2023-05-07T11:44:38;25.10;44.30
52189;DHT22;38162;45.926;13.608;2023-05-07T11:47:05;25.00;45.10
52189;DHT22;38162;45.926;13.608;2023-05-07T11:49:31;25.10;44.50
52189;DHT22;38162;45.926;13.608;2023-05-07T11:51:57;25.00;44.00
52189;DHT22;38162;45.926;13.608;2023-05-07T11:54:23;25.00;44.50
52189;DHT22;38162;45.926;13.608;2023-05-07T11:56:55;25.00;42.90
52189;DHT22;38162;45.926;13.608;2023-05-07T11:59:24;24.90;44.10
52189;DHT22;38162;45.926;13.608;2023-05-07T12:05:31;25.00;42.50
52189;DHT22;38162;45.926;13.608;2023-05-07T12:08:26;25.10;42.20
52189;DHT22;38162;45.926;13.608;2023-05-07T12:11:01;25.10;41.90
52189;DHT22;38162;45.926;13.608;2023-05-07T12:13:51;25.10;43.80
52189;DHT22;38162;45.926;13.608;2023-05-07T12:16:54;25.10;44.40
52189;DHT22;38162;45.926;13.608;2023-05-07T12:19:20;25.10;42.00
52189;DHT22;38162;45.926;13.608;2023-05-07T12:22:10;25.10;42.80
52189;DHT22;38162;45.926;13.608;2023-05-07T12:24:56;25.10;44.20
52189;DHT22;38162;45.926;13.608;2023-05-07T12:27:22;25.20;44.60
52189;DHT22;38162;45.926;13.608;2023-05-07T12:29:49;25.20;43.10
52189;DHT22;38162;45.926;13.608;2023-05-07T12:32:17;25.20;44.80
52189;DHT22;38162;45.926;13.608;2023-05-07T12:34:44;25.20;44.80
52189;DHT22;38162;45.926;13.608;2023-05-07T12:37:10;25.10;45.20
52189;DHT22;38162;45.926;13.608;2023-05-07T12:39:36;25.10;44.60
52189;DHT22;38162;45.926;13.608;2023-05-07T12:42:01;25.10;42.50
52189;DHT22;38162;45.926;13.608;2023-05-07T12:44:32;25.10;39.30
52189;DHT22;38162;45.926;13.608;2023-05-07T12:47:00;24.90;38.70
52189;DHT22;38162;45.926;13.608;2023-05-07T12:49:26;24.90;39.60
52189;DHT22;38162;45.926;13.608;2023-05-07T12:51:53;24.80;41.10
52189;DHT22;38162;45.926;13.608;2023-05-07T12:54:33;24.80;41.70
52189;DHT22;38162;45.926;13.608;2023-05-07T12:57:07;24.70;42.30
52189;DHT22;38162;45.926;13.608;2023-05-07T12:59:39;24.70;42.80
52189;DHT22;38162;45.926;13.608;2023-05-07T13:02:06;24.70;44.30
52189;DHT22;38162;45.926;13.608;2023-05-07T13:04:32;24.70;45.60
52189;DHT22;38162;45.926;13.608;2023-05-07T13:06:59;24.70;45.20
52189;DHT22;38162;45.926;13.608;2023-05-07T13:09:25;24.80;46.80
52189;DHT22;38162;45.926;13.608;2023-05-07T13:11:50;24.80;47.20
52189;DHT22;38162;45.926;13.608;2023-05-07T13:14:16;24.80;48.20
52189;DHT22;38162;45.926;13.608;2023-05-07T13:16:42;24.80;48.90
52189;DHT22;38162;45.926;13.608;2023-05-07T13:19:08;24.80;50.00
52189;DHT22;38162;45.926;13.608;2023-05-07T13:21:34;24.80;49.90
52189;DHT22;38162;45.926;13.608;2023-05-07T13:24:00;24.80;51.00
52189;DHT22;38162;45.926;13.608;2023-05-07T13:26:26;24.80;52.30
52189;DHT22;38162;45.926;13.608;2023-05-07T13:28:55;24.80;52.50
52189;DHT22;38162;45.926;13.608;2023-05-07T13:31:20;24.70;47.90
52189;DHT22;38162;45.926;13.608;2023-05-07T13:33:46;24.70;48.10
52189;DHT22;38162;45.926;13.608;2023-05-07T13:36:12;24.60;49.70
52189;DHT22;38162;45.926;13.608;2023-05-07T13:38:39;24.60;54.30
52189;DHT22;38162;45.926;13.608;2023-05-07T13:45:05;24.50;56.80
52189;DHT22;38162;45.926;13.608;2023-05-07T13:48:44;24.40;58.00
52189;DHT22;38162;45.926;13.608;2023-05-07T13:51:46;24.40;58.70
52189;DHT22;38162;45.926;13.608;2023-05-07T13:58:03;24.30;59.40
52189;DHT22;38162;45.926;13.608;2023-05-07T14:00:47;24.20;60.40
52189;DHT22;38162;45.926;13.608;2023-05-07T14:09:07;24.10;61.80
52189;DHT22;38162;45.926;13.608;2023-05-07T14:11:33;24.20;62.70
52189;DHT22;38162;45.926;13.608;2023-05-07T14:13:59;24.10;62.80
52189;DHT22;38162;45.926;13.608;2023-05-07T14:16:25;24.10;62.80
52189;DHT22;38162;45.926;13.608;2023-05-07T14:18:50;24.10;62.90
52189;DHT22;38162;45.926;13.608;2023-05-07T14:21:16;24.20;62.10
52189;DHT22;38162;45.926;13.608;2023-05-07T14:23:42;24.20;61.60
52189;DHT22;38162;45.926;13.608;2023-05-07T14:26:08;24.30;61.90
52189;DHT22;38162;45.926;13.608;2023-05-07T14:28:33;24.30;60.70
52189;DHT22;38162;45.926;13.608;2023-05-07T14:30:59;24.40;61.60
52189;DHT22;38162;45.926;13.608;2023-05-07T14:33:25;24.40;60.30
52189;DHT22;38162;45.926;13.608;2023-05-07T14:35:51;24.40;57.70
52189;DHT22;38162;45.926;13.608;2023-05-07T14:38:16;24.40;58.00
52189;DHT22;38162;45.926;13.608;2023-05-07T14:40:42;24.50;58.70
52189;DHT22;38162;45.926;13.608;2023-05-07T14:43:08;24.40;60.50
52189;DHT22;38162;45.926;13.608;2023-05-07T14:45:34;24.50;58.60
52189;DHT22;38162;45.926;13.608;2023-05-07T14:47:59;24.50;58.50
52189;DHT22;38162;45.926;13.608;2023-05-07T14:50:25;24.60;57.70
52189;DHT22;38162;45.926;13.608;2023-05-07T14:52:51;24.70;56.70
52189;DHT22;38162;45.926;13.608;2023-05-07T14:55:17;24.60;56.40
52189;DHT22;38162;45.926;13.608;2023-05-07T14:57:43;24.60;56.60
52189;DHT22;38162;45.926;13.608;2023-05-07T15:00:09;24.60;55.60
52189;DHT22;38162;45.926;13.608;2023-05-07T15:02:35;24.50;55.00
52189;DHT22;38162;45.926;13.608;2023-05-07T15:05:01;24.50;54.30
52189;DHT22;38162;45.926;13.608;2023-05-07T15:07:27;24.40;54.60
52189;DHT22;38162;45.926;13.608;2023-05-07T15:09:52;24.30;55.00
52189;DHT22;38162;45.926;13.608;2023-05-07T15:12:18;24.30;55.00
52189;DHT22;38162;45.926;13.608;2023-05-07T15:14:44;24.30;55.30
52189;DHT22;38162;45.926;13.608;2023-05-07T15:17:10;24.20;54.90
52189;DHT22;38162;45.926;13.608;2023-05-07T15:19:36;24.20;54.90
52189;DHT22;38162;45.926;13.608;2023-05-07T15:22:02;24.20;55.20
52189;DHT22;38162;45.926;13.608;2023-05-07T15:24:31;24.20;55.00
52189;DHT22;38162;45.926;13.608;2023-05-07T15:27:20;24.10;54.90
52189;DHT22;38162;45.926;13.608;2023-05-07T15:29:49;24.00;55.80
52189;DHT22;38162;45.926;13.608;2023-05-07T15:32:18;24.10;56.20
52189;DHT22;38162;45.926;13.608;2023-05-07T15:34:50;24.00;56.10
52189;DHT22;38162;45.926;13.608;2023-05-07T15:37:16;24.00;56.90
52189;DHT22;38162;45.926;13.608;2023-05-07T15:39:42;24.00;57.30
52189;DHT22;38162;45.926;13.608;2023-05-07T15:42:32;24.00;57.40
52189;DHT22;38162;45.926;13.608;2023-05-07T15:45:17;24.00;57.70
52189;DHT22;38162;45.926;13.608;2023-05-07T15:47:43;24.00;57.90
52189;DHT22;38162;45.926;13.608;2023-05-07T15:50:09;24.00;57.60
52189;DHT22;38162;45.926;13.608;2023-05-07T15:52:35;24.00;57.20
52189;DHT22;38162;45.926;13.608;2023-05-07T15:55:01;24.00;57.00
52189;DHT22;38162;45.926;13.608;2023-05-07T15:57:28;24.00;56.50
52189;DHT22;38162;45.926;13.608;2023-05-07T15:59:53;24.00;55.90
52189;DHT22;38162;45.926;13.608;2023-05-07T16:02:19;23.90;56.20
52189;DHT22;38162;45.926;13.608;2023-05-07T16:04:45;23.90;57.00
52189;DHT22;38162;45.926;13.608;2023-05-07T16:07:11;23.90;57.00
52189;DHT22;38162;45.926;13.608;2023-05-07T16:09:37;24.00;58.10
52189;DHT22;38162;45.926;13.608;2023-05-07T16:12:03;23.90;57.80
52189;DHT22;38162;45.926;13.608;2023-05-07T16:14:29;23.80;58.20
52189;DHT22;38162;45.926;13.608;2023-05-07T16:16:55;23.80;58.10
52189;DHT22;38162;45.926;13.608;2023-05-07T16:19:21;23.80;57.90
52189;DHT22;38162;45.926;13.608;2023-05-07T16:21:48;23.80;58.30
52189;DHT22;38162;45.926;13.608;2023-05-07T16:24:14;23.70;58.80
52189;DHT22;38162;45.926;13.608;2023-05-07T16:26:41;23.70;59.20
52189;DHT22;38162;45.926;13.608;2023-05-07T16:29:06;23.70;59.80
52189;DHT22;38162;45.926;13.608;2023-05-07T16:31:32;23.70;59.40
52189;DHT22;38162;45.926;13.608;2023-05-07T16:33:58;23.70;59.50
52189;DHT22;38162;45.926;13.608;2023-05-07T16:36:28;23.60;58.20
52189;DHT22;38162;45.926;13.608;2023-05-07T16:38:54;23.60;58.10
52189;DHT22;38162;45.926;13.608;2023-05-07T16:41:20;23.60;56.70
52189;DHT22;38162;45.926;13.608;2023-05-07T16:43:46;23.60;55.90
52189;DHT22;38162;45.926;13.608;2023-05-07T16:46:12;23.60;55.90